»·PEaware :: N6874 KFTG-KAIA

N6874 :: KFTG-KAIA

FLIGHT INFORMATION

Flight Status: Arrived
Operator: Privately registered:
United States
More flights under this callsign
Pilot: Anonymous 26047 (26047)
Aircraft: BEECH AIRCRAFT A90-E90 KING AIR
(BE9L)
More flights by this aircraft type
Origin: KFTG Front Range
United States
Destination: KAIA Alliance Mun
United States
More flights between these airports :: More routes between these airports
Route: +BFF
File this flight plan on PilotEdge
Remarks:
Altitude:
(Current/Filed)
21,000ft
Speed:
(Current/Filed)
250kts
Departed: 08-Nov-19 08:04 PM
Arrived: 08-Nov-19 09:02 PM
Distance/Time
Traveled:
158nm/0:58
Distance/Time
To Go:
Arrived

Flight Plot

Page will automatically refresh every two minutes.


Map Options




Map Legend


Flown Route
Filed Route
Departure Airport
Arrival Airport
Navaid (VOR, NDB)
Fix

Horizontal Profiles

Position Reports

Time Latitude Longitude Heading Altitude Ground
Speed
08-Nov-19 19:38 39.791612 -104.550636 180 5482ft 0kts
08-Nov-19 19:39 39.791612 -104.550636 180 5482ft 0kts
08-Nov-19 19:40 39.791612 -104.550636 180 5482ft 0kts
08-Nov-19 19:41 39.791612 -104.550636 180 5482ft 0kts
08-Nov-19 19:42 39.791612 -104.550636 180 5482ft 0kts
08-Nov-19 19:43 39.791612 -104.550636 180 5482ft 0kts
08-Nov-19 19:44 39.791612 -104.550636 180 5482ft 0kts
08-Nov-19 19:45 39.791612 -104.550636 180 5482ft 0kts
08-Nov-19 19:46 39.791612 -104.550636 180 5482ft 0kts
08-Nov-19 19:47 39.791468 -104.550111 92 5482ft 7kts
08-Nov-19 19:48 39.792687 -104.551716 270 5482ft 12kts
08-Nov-19 19:49 39.792782 -104.557491 271 5482ft 22kts
08-Nov-19 19:50 39.792931 -104.565509 303 5448ft 0kts
08-Nov-19 19:51 39.792931 -104.565509 303 5448ft 0kts
08-Nov-19 19:52 39.792931 -104.565509 303 5448ft 0kts
08-Nov-19 19:53 39.792931 -104.565509 303 5448ft 0kts
08-Nov-19 19:54 39.792931 -104.565509 303 5448ft 0kts
08-Nov-19 19:55 39.793100 -104.565269 38 5449ft 0kts
08-Nov-19 19:56 39.793100 -104.565269 38 5449ft 0kts
08-Nov-19 19:57 39.793100 -104.565269 38 5449ft 0kts
08-Nov-19 19:59 39.793100 -104.565269 38 5449ft 0kts
08-Nov-19 20:00 39.793100 -104.565269 38 5449ft 0kts
08-Nov-19 20:01 39.793100 -104.565269 38 5449ft 0kts
08-Nov-19 20:02 39.793100 -104.565269 38 5449ft 0kts
08-Nov-19 20:03 39.793815 -104.565132 6 5449ft 14kts
08-Nov-19 20:04 39.793927 -104.559521 92 5473ft 88kts
08-Nov-19 20:05 39.794979 -104.514978 54 6495ft 141kts
08-Nov-19 20:06 39.828326 -104.493626 18 8305ft 134kts
08-Nov-19 20:07 39.866746 -104.475299 17 9582ft 159kts
08-Nov-19 20:08 39.908821 -104.455301 16 11098ft 160kts
08-Nov-19 20:09 39.950302 -104.435575 16 12624ft 159kts
08-Nov-19 20:10 39.991703 -104.415867 15 14145ft 158kts
08-Nov-19 20:11 40.032799 -104.396284 15 15614ft 158kts
08-Nov-19 20:12 40.074171 -104.376543 15 16975ft 159kts
08-Nov-19 20:13 40.115657 -104.356727 14 18220ft 160kts
08-Nov-19 20:14 40.157297 -104.336802 14 19391ft 159kts
08-Nov-19 20:15 40.198734 -104.316953 14 20456ft 158kts
08-Nov-19 20:16 40.240144 -104.297118 14 21284ft 166kts
08-Nov-19 20:16 40.280004 -104.278047 14 21297ft 197kts
08-Nov-19 20:18 40.343053 -104.247952 14 21293ft 214kts
08-Nov-19 20:19 40.399877 -104.220667 14 21284ft 219kts
08-Nov-19 20:19 40.447754 -104.197591 14 21283ft 220kts
08-Nov-19 20:20 40.505273 -104.169795 14 21292ft 220kts
08-Nov-19 20:22 40.572464 -104.137255 14 21291ft 221kts
08-Nov-19 20:22 40.620531 -104.113929 14 21291ft 221kts
08-Nov-19 20:23 40.678108 -104.085941 14 21291ft 221kts
08-Nov-19 20:24 40.735434 -104.058023 14 21291ft 221kts
08-Nov-19 20:25 40.793105 -104.029870 14 21290ft 221kts
08-Nov-19 20:26 40.850794 -104.001680 14 21290ft 221kts
08-Nov-19 20:27 40.908843 -103.973255 14 21290ft 221kts
08-Nov-19 20:28 40.966505 -103.944964 14 21290ft 221kts
08-Nov-19 20:29 41.024408 -103.916501 14 21289ft 221kts
08-Nov-19 20:30 41.082382 -103.887946 14 21298ft 221kts
08-Nov-19 20:31 41.139175 -103.859932 14 21304ft 222kts
08-Nov-19 20:32 41.197248 -103.831242 14 21286ft 223kts
08-Nov-19 20:33 41.255420 -103.802432 13 21286ft 223kts
08-Nov-19 20:34 41.313585 -103.773560 13 21313ft 222kts
08-Nov-19 20:35 41.371639 -103.744689 13 21314ft 223kts
08-Nov-19 20:36 41.429673 -103.715810 13 21312ft 222kts
08-Nov-19 20:37 41.485941 -103.687738 13 20077ft 219kts
08-Nov-19 20:38 41.544116 -103.658792 13 18589ft 226kts
08-Nov-19 20:39 41.593876 -103.606773 45 17107ft 242kts
08-Nov-19 20:40 41.634168 -103.536774 44 15611ft 234kts
08-Nov-19 20:41 41.673102 -103.469406 43 14242ft 223kts
08-Nov-19 20:42 41.710081 -103.405228 43 13141ft 215kts
08-Nov-19 20:43 41.746705 -103.341703 44 12037ft 214kts
08-Nov-19 20:44 41.782843 -103.278518 43 10923ft 217kts
08-Nov-19 20:45 41.819739 -103.214226 41 9804ft 217kts
08-Nov-19 20:46 41.830028 -103.130902 85 8688ft 243kts
08-Nov-19 20:47 41.831528 -103.044334 97 7563ft 244kts
08-Nov-19 20:48 41.817740 -102.957294 97 6999ft 233kts
08-Nov-19 20:49 41.809253 -102.873051 78 6994ft 214kts
08-Nov-19 20:50 41.812667 -102.801001 79 6997ft 179kts
08-Nov-19 20:51 41.827327 -102.742772 49 6999ft 161kts
08-Nov-19 20:52 41.849446 -102.691457 47 6995ft 152kts
08-Nov-19 20:53 41.871380 -102.645699 44 6998ft 140kts
08-Nov-19 20:54 41.902488 -102.626302 357 6441ft 128kts
08-Nov-19 20:55 41.932356 -102.645254 316 5595ft 113kts
08-Nov-19 20:56 41.956195 -102.676516 314 5600ft 125kts
08-Nov-19 20:57 41.980607 -102.709794 314 5597ft 121kts
08-Nov-19 20:58 42.005544 -102.743902 313 4551ft 134kts
08-Nov-19 20:59 42.027601 -102.773754 319 4347ft 106kts
08-Nov-19 21:00 42.046273 -102.799703 313 3927ft 92kts
08-Nov-19 21:01 42.052218 -102.807164 9 3924ft 8kts
08-Nov-19 21:02 42.052742 -102.807153 0 3924ft 0kts
08-Nov-19 21:03 42.054973 -102.807208 359 3924ft 21kts
08-Nov-19 21:04 42.058150 -102.807244 0 3925ft 3kts
08-Nov-19 21:05 42.060655 -102.807292 358 3925ft 0kts
08-Nov-19 21:06 42.061476 -102.807329 0 3925ft 0kts
08-Nov-19 21:07 42.061476 -102.807329 0 3925ft 0kts
08-Nov-19 21:08 42.061476 -102.807329 0 3925ft 0kts
08-Nov-19 21:09 42.061476 -102.807329 0 3925ft 0kts
08-Nov-19 21:10 42.061476 -102.807329 0 3925ft 0kts
08-Nov-19 21:11 42.061476 -102.807329 0 3925ft 0kts
08-Nov-19 21:12 42.061476 -102.807329 0 3925ft 0kts
08-Nov-19 21:13 42.061476 -102.807329 0 3925ft 0kts
08-Nov-19 21:14 42.061476 -102.807329 0 3925ft 0kts
08-Nov-19 21:15 42.061476 -102.807329 0 3925ft 0kts

Navigation Log

Ident Type
Flight plan parsing failed, navigation log unavailable